Time;durP1;ratioP1;P1;durP2;ratioP2;P2;SDS_P1;SDS_P2;PMS_P1;PMS_P2;Temp;Humidity;BMP_temperature;BMP_pressure;BME280_temperature;BME280_humidity;BME280_pressure;Samples;Min_cycle;Max_cycle;Signal;HPM_P1;HPM_P2
2023/08/05 00:02:12;;;;;;;1.40;1.30;;;;;;;;;;5051586;28;20147;-85
2023/08/05 00:04:38;;;;;;;1.67;1.58;;;;;;;;;;5051820;28;20440;-85
2023/08/05 00:07:03;;;;;;;2.05;1.17;;;;;;;;;;5053590;28;20388;-86
2023/08/05 00:09:29;;;;;;;2.00;1.35;;;;;;;;;;5052973;28;20051;-84
2023/08/05 00:11:54;;;;;;;1.45;1.30;;;;;;;;;;5053068;28;20357;-84
2023/08/05 00:14:19;;;;;;;1.70;1.48;;;;;;;;;;5051576;28;20076;-85
2023/08/05 00:16:45;;;;;;;2.47;1.33;;;;;;;;;;5052686;28;20086;-85
2023/08/05 00:19:10;;;;;;;1.50;1.40;;;;;;;;;;5053052;28;20116;-84
2023/08/05 00:21:35;;;;;;;1.45;1.27;;;;;;;;;;5052009;28;20045;-84
2023/08/05 00:24:01;;;;;;;1.70;1.33;;;;;;;;;;5051337;28;20025;-84
2023/08/05 00:26:26;;;;;;;1.80;1.23;;;;;;;;;;5052844;28;20032;-85
2023/08/05 00:28:52;;;;;;;1.67;1.30;;;;;;;;;;5051224;28;20203;-85
2023/08/05 00:31:17;;;;;;;2.13;1.13;;;;;;;;;;5054966;28;20033;-85
2023/08/05 00:33:42;;;;;;;1.30;1.20;;;;;;;;;;5056667;28;20033;-85
2023/08/05 00:36:08;;;;;;;2.10;1.50;;;;;;;;;;5056254;28;20029;-84
2023/08/05 00:38:33;;;;;;;1.30;1.20;;;;;;;;;;5038353;28;20029;-85
2023/08/05 00:40:58;;;;;;;1.42;1.27;;;;;;;;;;5055082;28;20033;-84
2023/08/05 00:43:24;;;;;;;1.50;1.40;;;;;;;;;;5055138;28;20111;-84
2023/08/05 00:45:49;;;;;;;2.30;1.42;;;;;;;;;;5055276;28;20041;-84
2023/08/05 00:48:15;;;;;;;3.08;1.30;;;;;;;;;;5054956;28;20467;-84
2023/08/05 00:50:40;;;;;;;1.23;1.17;;;;;;;;;;5055113;28;20035;-84
2023/08/05 00:53:06;;;;;;;2.47;1.60;;;;;;;;;;5054887;28;20028;-84
2023/08/05 00:55:32;;;;;;;1.58;1.40;;;;;;;;;;5056462;28;20025;-84
2023/08/05 00:57:57;;;;;;;1.60;1.33;;;;;;;;;;5054936;28;20032;-84
2023/08/05 01:00:23;;;;;;;2.13;1.50;;;;;;;;;;5056096;28;20104;-85
2023/08/05 01:02:48;;;;;;;1.50;1.40;;;;;;;;;;5056007;28;20061;-85
2023/08/05 01:05:14;;;;;;;2.13;1.40;;;;;;;;;;5054607;28;20029;-84
2023/08/05 01:07:42;;;;;;;1.88;1.25;;;;;;;;;;5038016;28;20109;-84
2023/08/05 01:10:08;;;;;;;1.40;1.30;;;;;;;;;;5054704;28;20063;-84
2023/08/05 01:12:34;;;;;;;1.83;1.25;;;;;;;;;;5054551;28;20067;-84
2023/08/05 01:14:59;;;;;;;1.40;1.30;;;;;;;;;;5054460;28;20037;-84
2023/08/05 01:17:24;;;;;;;1.77;1.48;;;;;;;;;;5037679;28;20039;-84
2023/08/05 01:19:50;;;;;;;1.50;1.40;;;;;;;;;;5054365;28;20068;-85
2023/08/05 01:22:37;;;;;;;2.00;1.48;;;;;;;;;;5055672;28;20040;-84
2023/08/05 01:25:05;;;;;;;1.20;1.10;;;;;;;;;;5054544;28;20025;-84
2023/08/05 01:27:32;;;;;;;1.40;1.30;;;;;;;;;;5055632;28;20029;-84
2023/08/05 01:29:57;;;;;;;2.40;1.45;;;;;;;;;;5053884;28;20048;-85
2023/08/05 01:32:24;;;;;;;2.20;1.30;;;;;;;;;;5054353;28;20022;-85
2023/08/05 01:34:50;;;;;;;2.80;1.40;;;;;;;;;;5054333;28;20426;-85
2023/08/05 01:37:15;;;;;;;1.50;1.40;;;;;;;;;;5037763;28;20029;-84
2023/08/05 01:39:40;;;;;;;1.40;1.23;;;;;;;;;;5053936;28;20029;-84
2023/08/05 01:42:06;;;;;;;3.90;1.42;;;;;;;;;;5036071;28;20037;-85
2023/08/05 01:44:32;;;;;;;1.40;1.20;;;;;;;;;;5037183;28;20404;-85
2023/08/05 01:46:57;;;;;;;2.60;1.40;;;;;;;;;;5054968;28;20108;-84
2023/08/05 01:49:22;;;;;;;1.33;1.23;;;;;;;;;;5053828;28;20036;-84
2023/08/05 01:51:48;;;;;;;1.55;1.30;;;;;;;;;;5054867;28;20425;-84
2023/08/05 01:54:13;;;;;;;1.50;1.38;;;;;;;;;;5053995;28;20040;-84
2023/08/05 01:56:38;;;;;;;1.70;1.30;;;;;;;;;;5053514;28;20118;-85
2023/08/05 01:59:04;;;;;;;1.30;1.20;;;;;;;;;;5055060;28;20029;-85
2023/08/05 02:01:47;;;;;;;1.52;1.30;;;;;;;;;;5053797;28;20052;-84
2023/08/05 02:04:13;;;;;;;7.85;1.60;;;;;;;;;;5053393;28;20024;-84
2023/08/05 02:06:40;;;;;;;1.30;1.20;;;;;;;;;;5053641;28;20028;-84
2023/08/05 02:09:05;;;;;;;1.42;1.33;;;;;;;;;;5036633;28;20443;-84
2023/08/05 02:11:31;;;;;;;1.95;1.48;;;;;;;;;;5053291;28;20040;-84
2023/08/05 02:13:56;;;;;;;2.05;1.48;;;;;;;;;;5053768;28;20094;-85
2023/08/05 02:16:21;;;;;;;1.63;1.38;;;;;;;;;;5053237;28;20028;-84
2023/08/05 02:18:49;;;;;;;1.42;1.20;;;;;;;;;;5053062;28;20119;-85
2023/08/05 02:21:14;;;;;;;1.60;1.40;;;;;;;;;;5055327;28;20052;-85
2023/08/05 02:23:40;;;;;;;1.40;1.30;;;;;;;;;;5054839;28;20408;-85
2023/08/05 02:26:05;;;;;;;1.80;1.33;;;;;;;;;;5054571;28;20503;-85
2023/08/05 02:28:30;;;;;;;1.60;1.40;;;;;;;;;;5054216;28;20033;-84
2023/08/05 02:30:56;;;;;;;1.40;1.30;;;;;;;;;;5054015;28;20112;-84
2023/08/05 02:33:21;;;;;;;1.38;1.27;;;;;;;;;;5053201;28;20495;-84
2023/08/05 02:35:47;;;;;;;2.38;1.38;;;;;;;;;;5054341;28;20154;-85
2023/08/05 02:38:13;;;;;;;2.08;1.45;;;;;;;;;;5053968;28;20033;-84
2023/08/05 02:40:39;;;;;;;1.88;1.38;;;;;;;;;;5053930;28;20025;-84
2023/08/05 02:43:05;;;;;;;1.83;1.30;;;;;;;;;;5052845;28;20361;-84
2023/08/05 02:45:30;;;;;;;1.63;1.33;;;;;;;;;;5052472;28;20037;-84
2023/08/05 02:47:55;;;;;;;1.40;1.30;;;;;;;;;;5054303;28;20086;-85
2023/08/05 02:50:21;;;;;;;1.60;1.50;;;;;;;;;;5035835;28;20044;-84
2023/08/05 02:52:46;;;;;;;2.05;1.45;;;;;;;;;;5052255;28;20029;-84
2023/08/05 02:55:11;;;;;;;1.30;1.20;;;;;;;;;;5052548;28;20037;-85
2023/08/05 02:57:37;;;;;;;1.83;1.40;;;;;;;;;;5053714;28;20475;-84
2023/08/05 03:00:03;;;;;;;1.33;1.23;;;;;;;;;;5053620;28;20060;-84
2023/08/05 03:02:29;;;;;;;1.70;1.35;;;;;;;;;;5052770;28;20131;-85
2023/08/05 03:04:54;;;;;;;1.55;1.38;;;;;;;;;;5052398;28;20472;-85
2023/08/05 03:07:19;;;;;;;1.38;1.27;;;;;;;;;;5052719;28;20112;-84
2023/08/05 03:09:45;;;;;;;1.50;1.40;;;;;;;;;;5052421;28;20518;-85
2023/08/05 03:12:11;;;;;;;1.45;1.35;;;;;;;;;;5054036;28;20048;-84
2023/08/05 03:14:36;;;;;;;1.40;1.30;;;;;;;;;;5052471;28;20025;-85
2023/08/05 03:17:01;;;;;;;1.50;1.30;;;;;;;;;;5053337;28;20476;-84
2023/08/05 03:19:27;;;;;;;1.35;1.25;;;;;;;;;;5035352;28;20032;-84
2023/08/05 03:21:52;;;;;;;1.98;1.40;;;;;;;;;;5052034;28;20032;-85
2023/08/05 03:24:17;;;;;;;3.13;1.25;;;;;;;;;;5052010;28;20040;-84
2023/08/05 03:26:43;;;;;;;1.40;1.30;;;;;;;;;;5051963;28;20039;-84
2023/08/05 03:29:08;;;;;;;2.30;1.55;;;;;;;;;;5051749;28;20068;-85
2023/08/05 03:31:33;;;;;;;1.60;1.50;;;;;;;;;;5035400;28;20041;-84
2023/08/05 03:33:59;;;;;;;1.70;1.30;;;;;;;;;;5052218;28;20028;-85
2023/08/05 03:36:24;;;;;;;1.48;1.38;;;;;;;;;;5051878;28;20044;-84
2023/08/05 03:38:50;;;;;;;1.52;1.30;;;;;;;;;;5053117;28;20061;-85
2023/08/05 03:41:15;;;;;;;1.77;1.40;;;;;;;;;;5053377;28;20029;-84
2023/08/05 03:43:40;;;;;;;1.30;1.20;;;;;;;;;;5051816;28;20040;-84
2023/08/05 03:46:06;;;;;;;1.70;1.55;;;;;;;;;;5053282;28;20518;-85
2023/08/05 03:48:31;;;;;;;1.67;1.38;;;;;;;;;;5052095;28;20036;-85
2023/08/05 03:50:57;;;;;;;1.65;1.55;;;;;;;;;;5053189;28;20119;-85
2023/08/05 03:53:22;;;;;;;2.38;1.50;;;;;;;;;;5051996;28;20132;-85
2023/08/05 03:55:47;;;;;;;1.83;1.50;;;;;;;;;;5052298;28;20025;-84
2023/08/05 03:58:13;;;;;;;1.63;1.33;;;;;;;;;;5051752;28;20120;-84
2023/08/05 04:00:42;;;;;;;1.67;1.50;;;;;;;;;;5052858;28;20048;-85
2023/08/05 04:03:08;;;;;;;1.73;1.52;;;;;;;;;;5051899;28;20110;-85
2023/08/05 04:05:33;;;;;;;1.67;1.42;;;;;;;;;;5055799;28;20087;-84
2023/08/05 04:07:58;;;;;;;2.05;1.40;;;;;;;;;;5057165;28;20036;-85
2023/08/05 04:10:24;;;;;;;1.60;1.50;;;;;;;;;;5055811;28;20099;-85
2023/08/05 04:12:50;;;;;;;1.73;1.60;;;;;;;;;;5056805;28;20110;-85
2023/08/05 04:15:17;;;;;;;2.22;1.45;;;;;;;;;;5056658;28;20098;-84
2023/08/05 04:17:44;;;;;;;3.45;1.63;;;;;;;;;;5055351;28;20032;-84
2023/08/05 04:20:11;;;;;;;1.98;1.60;;;;;;;;;;5038811;28;20488;-85
2023/08/05 04:22:38;;;;;;;1.88;1.23;;;;;;;;;;5055843;28;20095;-86
2023/08/05 04:25:04;;;;;;;1.55;1.40;;;;;;;;;;5055664;28;20029;-85
2023/08/05 04:27:30;;;;;;;1.50;1.40;;;;;;;;;;5055245;28;20024;-85
2023/08/05 04:29:55;;;;;;;3.88;1.45;;;;;;;;;;5056386;28;20408;-85
2023/08/05 04:32:21;;;;;;;1.45;1.35;;;;;;;;;;5056871;28;20059;-85
2023/08/05 04:34:46;;;;;;;1.80;1.35;;;;;;;;;;5056775;28;20029;-85
2023/08/05 04:37:21;;;;;;;3.92;1.67;;;;;;;;;;5056742;28;20033;-84
2023/08/05 04:39:47;;;;;;;1.85;1.48;;;;;;;;;;5056697;28;20031;-85
2023/08/05 04:42:13;;;;;;;1.95;1.38;;;;;;;;;;5056331;28;20107;-85
2023/08/05 04:44:42;;;;;;;1.55;1.45;;;;;;;;;;5055076;28;20032;-85
2023/08/05 04:47:08;;;;;;;1.60;1.50;;;;;;;;;;5055179;28;20459;-84
2023/08/05 04:49:34;;;;;;;2.13;1.40;;;;;;;;;;5038267;28;20086;-85
2023/08/05 04:51:59;;;;;;;2.35;1.65;;;;;;;;;;5054954;28;20435;-84
2023/08/05 04:54:25;;;;;;;1.95;1.48;;;;;;;;;;5056639;28;20032;-85
2023/08/05 04:56:50;;;;;;;2.13;1.40;;;;;;;;;;5055040;28;20052;-85
2023/08/05 04:59:15;;;;;;;1.55;1.33;;;;;;;;;;5056267;28;20108;-85
2023/08/05 05:01:41;;;;;;;2.17;1.50;;;;;;;;;;5054966;28;20116;-86
2023/08/05 05:04:06;;;;;;;1.63;1.40;;;;;;;;;;5056179;28;20033;-85
2023/08/05 05:06:31;;;;;;;1.73;1.42;;;;;;;;;;5056180;28;20083;-85
2023/08/05 05:08:57;;;;;;;1.50;1.40;;;;;;;;;;5056703;28;20053;-85
2023/08/05 05:11:23;;;;;;;1.50;1.40;;;;;;;;;;5054926;28;20035;-84
2023/08/05 05:13:50;;;;;;;1.95;1.30;;;;;;;;;;5056071;28;20384;-85
2023/08/05 05:16:17;;;;;;;1.50;1.25;;;;;;;;;;5055577;28;20033;-85
2023/08/05 05:18:42;;;;;;;3.78;1.70;;;;;;;;;;5055741;28;20025;-85
2023/08/05 05:21:08;;;;;;;1.45;1.33;;;;;;;;;;5054846;28;20029;-84
2023/08/05 05:23:33;;;;;;;2.90;1.40;;;;;;;;;;5054860;28;20391;-84
2023/08/05 05:25:59;;;;;;;1.52;1.42;;;;;;;;;;5056149;28;20029;-85
2023/08/05 05:28:24;;;;;;;2.10;1.65;;;;;;;;;;5054260;28;20082;-84
2023/08/05 05:30:49;;;;;;;1.75;1.30;;;;;;;;;;5055245;28;20488;-85
2023/08/05 05:33:15;;;;;;;1.40;1.30;;;;;;;;;;5054803;28;20484;-84
2023/08/05 05:35:40;;;;;;;1.50;1.40;;;;;;;;;;5055619;28;20106;-85
2023/08/05 05:38:05;;;;;;;1.65;1.30;;;;;;;;;;5054403;28;20029;-84
2023/08/05 05:40:31;;;;;;;1.70;1.30;;;;;;;;;;5055425;28;20028;-85
2023/08/05 05:42:56;;;;;;;4.28;1.42;;;;;;;;;;5053900;28;20029;-84
2023/08/05 05:45:22;;;;;;;2.40;1.60;;;;;;;;;;5054025;28;20082;-85
2023/08/05 05:47:47;;;;;;;2.42;1.30;;;;;;;;;;5055190;28;20032;-84
2023/08/05 05:50:12;;;;;;;4.10;2.00;;;;;;;;;;5055488;28;20041;-85
2023/08/05 05:52:38;;;;;;;1.40;1.30;;;;;;;;;;5055036;28;20029;-84
2023/08/05 05:55:04;;;;;;;2.55;1.45;;;;;;;;;;5055357;28;20025;-85
2023/08/05 05:57:29;;;;;;;1.67;1.33;;;;;;;;;;5055259;28;20071;-85
2023/08/05 05:59:56;;;;;;;3.67;1.60;;;;;;;;;;5055257;28;20430;-84
2023/08/05 06:02:21;;;;;;;1.60;1.50;;;;;;;;;;5054010;28;20382;-84
2023/08/05 06:04:47;;;;;;;1.83;1.50;;;;;;;;;;5053650;28;20037;-85
2023/08/05 06:07:13;;;;;;;2.35;1.60;;;;;;;;;;5053928;28;20033;-85
2023/08/05 06:09:39;;;;;;;1.40;1.30;;;;;;;;;;5054988;28;20033;-85
2023/08/05 06:12:05;;;;;;;1.90;1.70;;;;;;;;;;5053895;28;20090;-86
2023/08/05 06:14:30;;;;;;;1.40;1.30;;;;;;;;;;5053750;28;20033;-85
2023/08/05 06:16:56;;;;;;;2.35;1.77;;;;;;;;;;5055111;28;20028;-85
2023/08/05 06:19:21;;;;;;;1.30;1.20;;;;;;;;;;5054445;28;20032;-85
2023/08/05 06:21:46;;;;;;;1.80;1.40;;;;;;;;;;5054054;28;20032;-85
2023/08/05 06:24:12;;;;;;;2.55;1.40;;;;;;;;;;5054923;28;20021;-85
2023/08/05 06:26:37;;;;;;;1.70;1.60;;;;;;;;;;5054881;28;20037;-85
2023/08/05 06:29:03;;;;;;;3.28;1.45;;;;;;;;;;5052553;28;20145;-85
2023/08/05 06:31:28;;;;;;;1.75;1.35;;;;;;;;;;5053050;28;20033;-85
2023/08/05 06:33:54;;;;;;;1.60;1.35;;;;;;;;;;5054459;28;20533;-84
2023/08/05 06:36:19;;;;;;;2.50;1.40;;;;;;;;;;5053317;28;20116;-84
2023/08/05 06:38:44;;;;;;;2.42;1.60;;;;;;;;;;5054624;28;20075;-84
2023/08/05 06:41:10;;;;;;;2.20;1.30;;;;;;;;;;5036183;28;20498;-83
2023/08/05 06:43:35;;;;;;;1.98;1.48;;;;;;;;;;5052728;28;20029;-84
2023/08/05 06:46:00;;;;;;;2.13;1.70;;;;;;;;;;5036215;28;20029;-83
2023/08/05 06:48:26;;;;;;;3.13;1.67;;;;;;;;;;5054269;28;20033;-84
2023/08/05 06:50:51;;;;;;;2.38;1.50;;;;;;;;;;5054184;28;20037;-83
2023/08/05 06:53:17;;;;;;;1.35;1.25;;;;;;;;;;5053870;28;20036;-83
2023/08/05 06:55:42;;;;;;;1.75;1.35;;;;;;;;;;5052751;28;20479;-83
2023/08/05 06:58:08;;;;;;;2.70;1.58;;;;;;;;;;5052790;28;20170;-83
2023/08/05 07:00:33;;;;;;;2.08;1.42;;;;;;;;;;5054061;28;20024;-83
2023/08/05 07:03:01;;;;;;;1.45;1.30;;;;;;;;;;5052813;28;20020;-83
2023/08/05 07:05:26;;;;;;;1.85;1.40;;;;;;;;;;5036087;28;20029;-83
2023/08/05 07:07:52;;;;;;;1.95;1.40;;;;;;;;;;5053961;28;20541;-83
2023/08/05 07:10:17;;;;;;;1.95;1.50;;;;;;;;;;5053774;28;20108;-83
2023/08/05 07:12:42;;;;;;;3.78;1.60;;;;;;;;;;5053855;28;20375;-83
2023/08/05 07:15:08;;;;;;;1.50;1.40;;;;;;;;;;5053548;28;20041;-83
2023/08/05 07:17:34;;;;;;;1.33;1.23;;;;;;;;;;5053470;28;20442;-84
2023/08/05 07:19:59;;;;;;;1.80;1.70;;;;;;;;;;5053826;28;20040;-85
2023/08/05 07:22:25;;;;;;;1.50;1.40;;;;;;;;;;5053423;28;20075;-80
2023/08/05 07:24:54;;;;;;;1.38;1.27;;;;;;;;;;5052520;28;20035;-83
2023/08/05 07:27:20;;;;;;;1.63;1.27;;;;;;;;;;5053636;28;20090;-83
2023/08/05 07:29:45;;;;;;;1.95;1.42;;;;;;;;;;5053393;28;20450;-83
2023/08/05 07:32:10;;;;;;;3.60;1.55;;;;;;;;;;5053511;28;20045;-83
2023/08/05 07:34:36;;;;;;;5.47;1.50;;;;;;;;;;5053678;28;20041;-85
2023/08/05 07:37:01;;;;;;;3.55;1.30;;;;;;;;;;5052407;28;20469;-83
2023/08/05 07:39:33;;;;;;;1.55;1.33;;;;;;;;;;5051028;28;20040;-83
2023/08/05 07:42:02;;;;;;;1.67;1.40;;;;;;;;;;5036533;28;20428;-83
2023/08/05 07:44:28;;;;;;;1.75;1.45;;;;;;;;;;5052402;28;20029;-83
2023/08/05 07:46:54;;;;;;;1.75;1.50;;;;;;;;;;5053647;28;20053;-84
2023/08/05 07:49:19;;;;;;;1.80;1.30;;;;;;;;;;5052932;28;20106;-79
2023/08/05 07:51:48;;;;;;;1.70;1.48;;;;;;;;;;5053551;28;20059;-80
2023/08/05 07:54:15;;;;;;;1.60;1.50;;;;;;;;;;5052144;28;20028;-85
2023/08/05 07:56:41;;;;;;;3.00;1.60;;;;;;;;;;5055124;28;20029;-85
2023/08/05 07:59:07;;;;;;;1.40;1.30;;;;;;;;;;5053750;28;20025;-84
2023/08/05 08:01:33;;;;;;;1.73;1.52;;;;;;;;;;5052303;28;20455;-86
2023/08/05 08:04:02;;;;;;;1.63;1.48;;;;;;;;;;5053153;28;20029;-85
2023/08/05 08:06:28;;;;;;;1.55;1.40;;;;;;;;;;5035567;28;20109;-86
2023/08/05 08:08:53;;;;;;;3.42;1.63;;;;;;;;;;5053317;28;20124;-85
2023/08/05 08:11:18;;;;;;;2.13;1.73;;;;;;;;;;5053160;28;20088;-85
2023/08/05 08:13:44;;;;;;;3.53;1.63;;;;;;;;;;5052076;28;20055;-83
2023/08/05 08:16:09;;;;;;;6.47;1.83;;;;;;;;;;5052108;28;20116;-88
2023/08/05 08:18:35;;;;;;;3.25;2.00;;;;;;;;;;5058039;28;20032;-85
2023/08/05 08:21:00;;;;;;;2.33;1.38;;;;;;;;;;5053897;28;20032;-86
2023/08/05 08:23:25;;;;;;;1.90;1.40;;;;;;;;;;5035144;28;20131;-86
2023/08/05 08:25:51;;;;;;;3.72;1.42;;;;;;;;;;5035055;28;20036;-85
2023/08/05 08:28:16;;;;;;;1.63;1.52;;;;;;;;;;5051863;28;20123;-86
2023/08/05 08:30:53;;;;;;;3.88;1.70;;;;;;;;;;5051515;28;20045;-86
2023/08/05 08:33:18;;;;;;;5.18;1.85;;;;;;;;;;5035435;28;20031;-86
2023/08/05 08:35:44;;;;;;;1.63;1.52;;;;;;;;;;5035152;28;20112;-86
2023/08/05 08:38:09;;;;;;;3.72;1.60;;;;;;;;;;5035035;28;20025;-87
2023/08/05 08:40:35;;;;;;;1.88;1.50;;;;;;;;;;5052865;28;20036;-86
2023/08/05 08:43:01;;;;;;;1.95;1.55;;;;;;;;;;5051492;28;20532;-86
2023/08/05 08:45:31;;;;;;;1.90;1.75;;;;;;;;;;5051472;28;20033;-86
2023/08/05 08:47:57;;;;;;;2.65;1.52;;;;;;;;;;5051407;28;20472;-86
2023/08/05 08:50:22;;;;;;;1.77;1.35;;;;;;;;;;5053257;28;20086;-86
2023/08/05 08:52:49;;;;;;;1.45;1.35;;;;;;;;;;5055112;28;20028;-85
2023/08/05 08:55:14;;;;;;;1.27;1.20;;;;;;;;;;5055000;28;20043;-86
2023/08/05 08:57:40;;;;;;;1.50;1.40;;;;;;;;;;5056170;28;20115;-86
2023/08/05 09:00:06;;;;;;;1.30;1.20;;;;;;;;;;5055057;28;20076;-85
2023/08/05 09:02:32;;;;;;;1.33;1.23;;;;;;;;;;5056141;28;20033;-86
2023/08/05 09:04:58;;;;;;;1.40;1.30;;;;;;;;;;5056009;28;20039;-86
2023/08/05 09:07:26;;;;;;;1.40;1.30;;;;;;;;;;5055118;28;20182;-85
2023/08/05 09:09:52;;;;;;;1.35;1.20;;;;;;;;;;5054999;28;20028;-85
2023/08/05 09:12:17;;;;;;;7.03;1.40;;;;;;;;;;5054736;28;20036;-85
2023/08/05 09:14:43;;;;;;;1.20;1.10;;;;;;;;;;5056882;28;20029;-84
2023/08/05 09:17:08;;;;;;;1.60;1.30;;;;;;;;;;5055346;28;20484;-83
2023/08/05 09:19:34;;;;;;;3.88;1.30;;;;;;;;;;5038119;28;20091;-82
2023/08/05 09:22:01;;;;;;;5.18;1.60;;;;;;;;;;5055174;28;20033;-81
2023/08/05 09:24:27;;;;;;;1.77;1.30;;;;;;;;;;5038024;28;20369;-83
2023/08/05 09:26:57;;;;;;;1.17;1.08;;;;;;;;;;5054745;28;20040;-82
2023/08/05 09:29:23;;;;;;;1.60;1.30;;;;;;;;;;5054416;28;20124;-82
2023/08/05 09:32:00;;;;;;;1.40;1.30;;;;;;;;;;5054337;28;20452;-81
2023/08/05 09:34:35;;;;;;;1.65;1.35;;;;;;;;;;5054863;28;20480;-82
2023/08/05 09:37:02;;;;;;;1.27;1.20;;;;;;;;;;5054677;28;20071;-82
2023/08/05 09:39:48;;;;;;;1.48;1.15;;;;;;;;;;5055875;28;20035;-82
2023/08/05 09:42:24;;;;;;;2.00;1.20;;;;;;;;;;5053411;28;20032;-81
2023/08/05 09:44:54;;;;;;;3.85;1.17;;;;;;;;;;5053502;28;20071;-82
2023/08/05 09:47:23;;;;;;;3.13;1.35;;;;;;;;;;5053389;28;20031;-81
2023/08/05 09:49:52;;;;;;;2.45;1.25;;;;;;;;;;5036921;28;20036;-82
2023/08/05 09:52:21;;;;;;;2.15;1.30;;;;;;;;;;5053442;28;20029;-81
2023/08/05 09:55:03;;;;;;;1.30;1.20;;;;;;;;;;5036863;28;20083;-82
2023/08/05 09:57:30;;;;;;;2.20;1.38;;;;;;;;;;5069772;28;20094;-83
2023/08/05 09:59:58;;;;;;;1.38;1.27;;;;;;;;;;5053807;28;20040;-81
2023/08/05 10:02:29;;;;;;;1.50;1.40;;;;;;;;;;5053465;28;20519;-82
2023/08/05 10:04:56;;;;;;;1.63;1.50;;;;;;;;;;5054245;28;20025;-82
2023/08/05 10:07:22;;;;;;;2.88;1.25;;;;;;;;;;5052970;28;20021;-82
2023/08/05 10:09:48;;;;;;;2.38;1.50;;;;;;;;;;5053960;28;20113;-82
2023/08/05 10:12:16;;;;;;;1.73;1.40;;;;;;;;;;5052748;28;20056;-82
2023/08/05 10:14:42;;;;;;;2.17;1.50;;;;;;;;;;5053001;28;20095;-82
2023/08/05 10:17:08;;;;;;;1.85;1.40;;;;;;;;;;5036480;28;20519;-82
2023/08/05 10:19:34;;;;;;;1.65;1.30;;;;;;;;;;5036081;28;20029;-82
2023/08/05 10:22:11;;;;;;;1.85;1.40;;;;;;;;;;5036100;28;20071;-82
2023/08/05 10:24:56;;;;;;;2.15;1.40;;;;;;;;;;5052621;28;20035;-82
2023/08/05 10:27:43;;;;;;;1.80;1.60;;;;;;;;;;5035909;28;20029;-82
2023/08/05 10:30:09;;;;;;;2.03;1.30;;;;;;;;;;5053062;28;20045;-82
2023/08/05 10:32:36;;;;;;;4.35;1.80;;;;;;;;;;5055203;28;20028;-82
2023/08/05 10:35:26;;;;;;;1.85;1.58;;;;;;;;;;5035899;28;20491;-81
2023/08/05 10:38:04;;;;;;;1.80;1.58;;;;;;;;;;5055707;28;20021;-82
2023/08/05 10:40:37;;;;;;;2.13;1.65;;;;;;;;;;5054325;28;20025;-82
2023/08/05 10:43:04;;;;;;;4.13;2.22;;;;;;;;;;5054274;28;20020;-81
2023/08/05 10:45:29;;;;;;;1.60;1.50;;;;;;;;;;5053592;28;20041;-81
2023/08/05 10:47:55;;;;;;;2.40;1.42;;;;;;;;;;5053667;28;20586;-81
2023/08/05 10:50:21;;;;;;;1.80;1.70;;;;;;;;;;5053425;28;20117;-82
2023/08/05 10:52:50;;;;;;;1.55;1.40;;;;;;;;;;5035367;28;20108;-80
2023/08/05 10:55:15;;;;;;;3.08;1.40;;;;;;;;;;5052090;28;20045;-81
2023/08/05 10:57:41;;;;;;;1.63;1.50;;;;;;;;;;5052018;28;20074;-81
2023/08/05 11:00:07;;;;;;;1.60;1.48;;;;;;;;;;5053684;28;20017;-80
2023/08/05 11:02:33;;;;;;;1.75;1.50;;;;;;;;;;5052126;28;20035;-80
2023/08/05 11:05:17;;;;;;;1.77;1.42;;;;;;;;;;5052363;28;20025;-80
2023/08/05 11:07:42;;;;;;;1.63;1.52;;;;;;;;;;5052053;28;20025;-80
2023/08/05 11:10:09;;;;;;;2.90;1.70;;;;;;;;;;5035050;28;20479;-82
2023/08/05 11:12:35;;;;;;;2.83;1.50;;;;;;;;;;5035043;28;20029;-82
2023/08/05 11:15:01;;;;;;;1.60;1.50;;;;;;;;;;5051796;28;20108;-82
2023/08/05 11:17:26;;;;;;;1.88;1.50;;;;;;;;;;5051675;28;20455;-81
2023/08/05 11:19:56;;;;;;;1.55;1.40;;;;;;;;;;5052987;28;20447;-81
2023/08/05 11:22:24;;;;;;;1.63;1.50;;;;;;;;;;5051955;28;20021;-81
2023/08/05 11:25:00;;;;;;;1.90;1.70;;;;;;;;;;5051583;28;20024;-82
2023/08/05 11:27:32;;;;;;;1.70;1.60;;;;;;;;;;5051418;28;20024;-81
2023/08/05 11:29:58;;;;;;;3.63;1.50;;;;;;;;;;5018804;28;20049;-82
2023/08/05 11:32:23;;;;;;;2.40;1.65;;;;;;;;;;5034790;28;20029;-81
2023/08/05 11:34:50;;;;;;;2.03;1.70;;;;;;;;;;5051462;28;20538;-81
2023/08/05 11:37:22;;;;;;;4.05;1.95;;;;;;;;;;5051590;28;20120;-81
2023/08/05 11:39:47;;;;;;;1.60;1.50;;;;;;;;;;5051581;28;20025;-81
2023/08/05 11:42:13;;;;;;;2.55;1.80;;;;;;;;;;5051373;28;20036;-81
2023/08/05 11:44:38;;;;;;;3.88;1.70;;;;;;;;;;5051272;28;20036;-81
2023/08/05 11:47:03;;;;;;;1.73;1.63;;;;;;;;;;5051488;28;20523;-81
2023/08/05 11:49:29;;;;;;;2.15;1.73;;;;;;;;;;5034925;28;20065;-81
2023/08/05 11:51:54;;;;;;;1.75;1.65;;;;;;;;;;5034885;28;20071;-81
2023/08/05 11:54:38;;;;;;;1.80;1.60;;;;;;;;;;5034903;28;20115;-81
2023/08/05 11:57:20;;;;;;;3.03;1.70;;;;;;;;;;5051244;28;20032;-82
2023/08/05 11:59:47;;;;;;;5.40;1.88;;;;;;;;;;5053209;28;20043;-80
2023/08/05 12:02:13;;;;;;;2.15;1.50;;;;;;;;;;5052497;28;20029;-81
2023/08/05 12:04:43;;;;;;;2.58;1.70;;;;;;;;;;5052272;28;20038;-81
2023/08/05 12:07:16;;;;;;;1.60;1.50;;;;;;;;;;5053478;28;20111;-81
2023/08/05 12:09:42;;;;;;;2.17;1.60;;;;;;;;;;5051753;28;20369;-81
2023/08/05 12:12:20;;;;;;;3.05;1.67;;;;;;;;;;5052077;28;20048;-82
2023/08/05 12:14:45;;;;;;;1.77;1.40;;;;;;;;;;5053207;28;20036;-82
2023/08/05 12:17:11;;;;;;;1.45;1.30;;;;;;;;;;5052232;28;20029;-82
2023/08/05 12:19:41;;;;;;;2.35;1.70;;;;;;;;;;5052100;28;20467;-82
2023/08/05 12:22:06;;;;;;;2.08;1.48;;;;;;;;;;5052198;28;20025;-82
2023/08/05 12:24:32;;;;;;;3.45;1.67;;;;;;;;;;5059922;28;20059;-82
2023/08/05 12:26:57;;;;;;;3.38;1.75;;;;;;;;;;5068898;28;20039;-82
2023/08/05 12:29:22;;;;;;;4.95;2.00;;;;;;;;;;5058358;28;20507;-82
2023/08/05 12:31:49;;;;;;;2.38;1.63;;;;;;;;;;5058360;28;20496;-81
2023/08/05 12:34:17;;;;;;;1.83;1.65;;;;;;;;;;5057887;28;20033;-81
2023/08/05 12:36:44;;;;;;;2.20;2.00;;;;;;;;;;5058938;28;20048;-81
2023/08/05 12:39:09;;;;;;;2.22;1.80;;;;;;;;;;5059513;28;20036;-81
2023/08/05 12:41:34;;;;;;;2.05;1.73;;;;;;;;;;5062732;28;20020;-82
2023/08/05 12:44:01;;;;;;;2.25;1.58;;;;;;;;;;5058318;28;20480;-81
2023/08/05 12:46:26;;;;;;;1.80;1.70;;;;;;;;;;5058588;28;20094;-81
2023/08/05 12:48:51;;;;;;;11.77;1.85;;;;;;;;;;5039230;28;20115;-81
2023/08/05 12:51:17;;;;;;;2.92;1.98;;;;;;;;;;5055854;28;20029;-81
2023/08/05 12:53:43;;;;;;;1.92;1.58;;;;;;;;;;5056666;28;20043;-81
2023/08/05 12:56:08;;;;;;;3.55;2.05;;;;;;;;;;5057216;28;20021;-81
2023/08/05 12:58:34;;;;;;;1.73;1.60;;;;;;;;;;5056525;28;20036;-81
2023/08/05 13:00:59;;;;;;;2.88;1.60;;;;;;;;;;5056712;28;20029;-80
2023/08/05 13:03:25;;;;;;;1.50;1.40;;;;;;;;;;5056223;28;20029;-81
2023/08/05 13:05:50;;;;;;;2.42;1.40;;;;;;;;;;5056354;28;20091;-81
2023/08/05 13:08:15;;;;;;;2.50;1.52;;;;;;;;;;5056190;28;20033;-82
2023/08/05 13:10:43;;;;;;;1.95;1.65;;;;;;;;;;5054700;28;20373;-81
2023/08/05 13:13:09;;;;;;;2.88;1.50;;;;;;;;;;5055849;28;20035;-81
2023/08/05 13:15:34;;;;;;;1.45;1.35;;;;;;;;;;5054713;28;20116;-81
2023/08/05 13:18:00;;;;;;;3.65;1.65;;;;;;;;;;5054412;28;20033;-81
2023/08/05 13:20:25;;;;;;;1.77;1.48;;;;;;;;;;5056384;28;20115;-81
2023/08/05 13:22:50;;;;;;;2.50;1.60;;;;;;;;;;5054527;28;20480;-77
2023/08/05 13:25:16;;;;;;;1.95;1.50;;;;;;;;;;5055044;28;20372;-82
2023/08/05 13:27:41;;;;;;;2.13;1.42;;;;;;;;;;5054436;28;20083;-81
2023/08/05 13:30:07;;;;;;;1.67;1.30;;;;;;;;;;5054333;28;20056;-81
2023/08/05 13:32:32;;;;;;;2.28;1.35;;;;;;;;;;5037789;28;20036;-81
2023/08/05 13:34:58;;;;;;;1.90;1.60;;;;;;;;;;5054746;28;20156;-78
2023/08/05 13:37:23;;;;;;;2.05;1.40;;;;;;;;;;5055771;28;20032;-82
2023/08/05 13:39:49;;;;;;;1.58;1.30;;;;;;;;;;5055538;28;20025;-82
2023/08/05 13:42:15;;;;;;;1.30;1.20;;;;;;;;;;5037723;28;20059;-83
2023/08/05 13:44:42;;;;;;;2.08;1.42;;;;;;;;;;5054441;28;20057;-83
2023/08/05 13:47:07;;;;;;;2.03;1.60;;;;;;;;;;5054629;28;20056;-82
2023/08/05 13:49:32;;;;;;;2.38;1.50;;;;;;;;;;5054413;28;20490;-82
2023/08/05 13:51:58;;;;;;;2.97;1.58;;;;;;;;;;5053973;28;20546;-82
2023/08/05 13:54:23;;;;;;;2.22;1.45;;;;;;;;;;5055289;28;20032;-82
2023/08/05 13:56:49;;;;;;;1.77;1.40;;;;;;;;;;5056236;28;20025;-82
2023/08/05 13:59:15;;;;;;;2.15;1.60;;;;;;;;;;5056008;28;20087;-83
2023/08/05 14:01:43;;;;;;;3.63;1.98;;;;;;;;;;5020726;28;20040;-83
2023/08/05 14:04:09;;;;;;;2.67;1.58;;;;;;;;;;5053965;28;20471;-82
2023/08/05 14:06:34;;;;;;;1.90;1.42;;;;;;;;;;5055089;28;20178;-82
2023/08/05 14:09:04;;;;;;;1.85;1.40;;;;;;;;;;5053815;28;20029;-83
2023/08/05 14:11:29;;;;;;;1.63;1.30;;;;;;;;;;5053503;28;20044;-82
2023/08/05 14:13:54;;;;;;;1.45;1.30;;;;;;;;;;5054782;28;20111;-82
2023/08/05 14:16:20;;;;;;;1.67;1.40;;;;;;;;;;5054772;28;20490;-82
2023/08/05 14:18:45;;;;;;;1.95;1.50;;;;;;;;;;5055075;28;20033;-83
2023/08/05 14:21:11;;;;;;;2.17;1.50;;;;;;;;;;5037326;28;20442;-83
2023/08/05 14:23:36;;;;;;;2.15;1.67;;;;;;;;;;5053345;28;20036;-82
2023/08/05 14:26:01;;;;;;;2.47;1.45;;;;;;;;;;5056746;28;20025;-83
2023/08/05 14:28:27;;;;;;;2.10;1.45;;;;;;;;;;5054639;28;20025;-83
2023/08/05 14:30:52;;;;;;;1.90;1.38;;;;;;;;;;5053027;28;20086;-83
2023/08/05 14:33:18;;;;;;;1.50;1.40;;;;;;;;;;5053258;28;20029;-83
2023/08/05 14:35:43;;;;;;;2.20;1.48;;;;;;;;;;5053532;28;20044;-83
2023/08/05 14:38:08;;;;;;;3.30;1.90;;;;;;;;;;5036499;28;20037;-82
2023/08/05 14:40:35;;;;;;;5.85;1.67;;;;;;;;;;5054145;28;20096;-82